Time;durP1;ratioP1;P1;durP2;ratioP2;P2;SDS_P1;SDS_P2;PMS_P1;PMS_P2;Temp;Humidity;BMP_temperature;BMP_pressure;BME280_temperature;BME280_humidity;BME280_pressure;Samples;Min_cycle;Max_cycle;Signal;HPM_P1;HPM_P2
2022/07/16 00:02:18;;;;;;;4.53;2.60;;;;;;;21.93;51.30;97005.91;4819980;29;20222;-70
2022/07/16 00:04:45;;;;;;;7.07;3.87;;;;;;;21.58;52.18;97011.69;4819961;29;20299;-69
2022/07/16 00:07:12;;;;;;;5.03;3.10;;;;;;;21.51;52.42;97013.22;4820077;29;20201;-69
2022/07/16 00:09:39;;;;;;;4.03;2.80;;;;;;;21.51;52.49;97007.94;4819694;29;20217;-70
2022/07/16 00:12:06;;;;;;;5.03;2.90;;;;;;;21.66;51.95;97002.13;4819627;29;20207;-69
2022/07/16 00:14:33;;;;;;;4.77;2.83;;;;;;;21.73;51.62;97010.31;4819600;29;20219;-69
2022/07/16 00:17:00;;;;;;;24.77;3.50;;;;;;;21.66;52.17;97014.44;4819631;29;20233;-69
2022/07/16 00:19:27;;;;;;;4.00;3.60;;;;;;;21.63;52.10;97001.56;4819590;29;20216;-70
2022/07/16 00:21:56;;;;;;;5.30;3.70;;;;;;;21.70;51.88;97003.50;4819426;29;20698;-69
2022/07/16 00:24:24;;;;;;;3.33;3.03;;;;;;;21.36;52.34;97001.41;4819674;29;20822;-70
2022/07/16 00:26:52;;;;;;;10.70;3.43;;;;;;;21.05;53.67;97001.50;4819389;29;20209;-69
2022/07/16 00:29:20;;;;;;;5.00;3.53;;;;;;;21.04;53.76;97005.09;4819980;29;20297;-70
2022/07/16 00:31:49;;;;;;;9.13;6.67;;;;;;;20.90;54.06;96997.53;4819520;29;20215;-69
2022/07/16 00:34:17;;;;;;;3.40;3.07;;;;;;;20.76;54.29;96992.66;4819377;29;20210;-69
2022/07/16 00:36:45;;;;;;;5.03;2.80;;;;;;;20.77;54.68;96994.31;4819372;29;20212;-69
2022/07/16 00:39:12;;;;;;;4.87;3.03;;;;;;;20.86;54.55;97000.56;4819368;29;20211;-70
2022/07/16 00:41:41;;;;;;;5.33;3.17;;;;;;;20.85;54.61;97004.19;4819605;29;20779;-69
2022/07/16 00:44:11;;;;;;;4.43;3.07;;;;;;;21.02;53.73;96990.38;4819097;29;20233;-69
2022/07/16 00:46:40;;;;;;;4.30;2.93;;;;;;;21.08;54.03;96994.31;4819305;29;20794;-69
2022/07/16 00:49:08;;;;;;;3.47;2.40;;;;;;;21.28;53.20;96996.00;4819175;29;20210;-70
2022/07/16 00:51:37;;;;;;;4.70;2.60;;;;;;;21.51;52.52;97003.53;4819057;29;20214;-69
2022/07/16 00:54:04;;;;;;;3.53;2.90;;;;;;;21.69;52.03;97001.00;4819229;29;20202;-70
2022/07/16 00:56:31;;;;;;;3.93;2.50;;;;;;;21.84;51.49;96995.19;4818578;29;20577;-70
2022/07/16 00:58:58;;;;;;;3.17;2.87;;;;;;;21.92;51.21;96983.97;4819311;29;20348;-69
2022/07/16 01:01:26;;;;;;;4.20;2.83;;;;;;;22.01;50.97;96996.28;4802511;29;20829;-69
2022/07/16 01:03:53;;;;;;;5.20;2.67;;;;;;;22.10;50.74;96990.16;4818930;29;20603;-69
2022/07/16 01:06:22;;;;;;;3.60;2.70;;;;;;;22.15;50.79;96987.09;4818871;29;20214;-69
2022/07/16 01:08:50;;;;;;;6.37;3.63;;;;;;;21.88;50.95;96982.56;4818888;29;20212;-69
2022/07/16 01:11:19;;;;;;;4.00;2.80;;;;;;;21.82;50.95;96988.41;4819153;29;20207;-70
2022/07/16 01:13:49;;;;;;;3.40;3.10;;;;;;;21.56;51.67;96990.75;4818889;29;20706;-70
2022/07/16 01:16:18;;;;;;;2.73;2.50;;;;;;;21.62;51.75;96984.06;4818865;29;20241;-69
2022/07/16 01:18:46;;;;;;;4.40;2.97;;;;;;;21.72;51.75;96982.28;4818809;29;20195;-69
2022/07/16 01:21:14;;;;;;;3.33;3.00;;;;;;;21.75;51.39;96974.94;4818976;29;20666;-68
2022/07/16 01:23:45;;;;;;;3.57;2.93;;;;;;;21.80;51.36;96985.88;4818583;29;20231;-68
2022/07/16 01:26:12;;;;;;;4.70;3.10;;;;;;;21.81;51.42;96987.56;4818603;29;20221;-69
2022/07/16 01:28:39;;;;;;;3.70;3.17;;;;;;;21.74;51.88;96989.06;4818821;29;20215;-69
2022/07/16 01:31:06;;;;;;;5.00;3.53;;;;;;;21.63;52.01;96983.13;4818474;29;20627;-69
2022/07/16 01:33:36;;;;;;;5.40;3.07;;;;;;;21.38;52.53;96988.94;4818745;29;20773;-69
2022/07/16 01:36:14;;;;;;;4.27;2.90;;;;;;;21.14;53.54;96980.59;4801997;29;20603;-69
2022/07/16 01:38:44;;;;;;;3.30;2.97;;;;;;;20.87;53.87;96991.72;4818599;29;20219;-70
2022/07/16 01:41:13;;;;;;;5.70;2.90;;;;;;;20.72;54.74;96990.41;4818499;29;20859;-69
2022/07/16 01:43:40;;;;;;;3.93;3.10;;;;;;;20.38;55.50;96994.31;4818345;29;20242;-68
2022/07/16 01:46:07;;;;;;;6.60;3.43;;;;;;;20.08;56.40;96989.81;4818530;29;20209;-68
2022/07/16 01:48:34;;;;;;;4.77;3.13;;;;;;;19.86;57.31;96989.97;4818502;29;20213;-69
2022/07/16 01:51:01;;;;;;;4.90;2.90;;;;;;;19.97;56.86;96987.28;4818360;29;20209;-69
2022/07/16 01:53:29;;;;;;;3.20;2.90;;;;;;;19.82;57.57;96981.50;4818238;29;20214;-69
2022/07/16 01:55:58;;;;;;;4.03;2.93;;;;;;;19.77;57.82;96982.81;4818201;29;20705;-70
2022/07/16 01:58:26;;;;;;;5.37;3.00;;;;;;;19.38;58.45;96951.03;4818311;29;20232;-67
2022/07/16 02:00:53;;;;;;;5.30;3.20;;;;;;;19.54;58.52;96984.72;4818138;29;20287;-68
2022/07/16 02:03:21;;;;;;;3.63;3.10;;;;;;;19.47;58.46;96979.13;4818422;29;20229;-68
2022/07/16 02:05:49;;;;;;;5.30;3.27;;;;;;;19.34;59.06;96989.00;4818181;29;20686;-69
2022/07/16 02:08:16;;;;;;;5.73;3.47;;;;;;;19.18;59.78;96985.94;4817367;29;20305;-68
2022/07/16 02:10:43;;;;;;;3.27;2.97;;;;;;;19.01;60.13;96972.47;4817971;29;20697;-68
2022/07/16 02:13:10;;;;;;;3.30;2.70;;;;;;;19.09;60.01;96984.03;4818033;29;20213;-68
2022/07/16 02:15:57;;;;;;;5.23;3.27;;;;;;;19.30;59.63;96979.69;4804278;29;20244;-68
2022/07/16 02:18:24;;;;;;;4.93;3.27;;;;;;;19.49;58.71;96979.84;4818134;29;20212;-68
2022/07/16 02:20:52;;;;;;;3.90;3.23;;;;;;;19.67;58.91;96988.03;4818322;29;20201;-68
2022/07/16 02:23:19;;;;;;;4.53;3.27;;;;;;;19.74;58.50;96985.72;4817808;29;20526;-69
2022/07/16 02:25:46;;;;;;;7.57;3.13;;;;;;;20.14;57.36;96984.03;4817931;29;20591;-68
2022/07/16 02:28:13;;;;;;;3.43;3.03;;;;;;;20.30;56.17;96978.34;4817825;29;20206;-68
2022/07/16 02:30:43;;;;;;;3.93;3.37;;;;;;;20.35;55.45;96976.13;4817961;29;20248;-68
2022/07/16 02:33:13;;;;;;;3.20;2.90;;;;;;;20.07;56.10;96982.91;4818014;29;20210;-68
2022/07/16 02:35:41;;;;;;;4.97;2.80;;;;;;;19.88;56.43;96980.16;4817865;29;20212;-68
2022/07/16 02:38:09;;;;;;;3.63;2.97;;;;;;;19.79;56.53;96980.91;4818315;29;20212;-68
2022/07/16 02:40:37;;;;;;;6.27;3.03;;;;;;;19.81;56.30;96984.25;4818057;29;20209;-68
2022/07/16 02:43:05;;;;;;;3.80;2.70;;;;;;;19.98;56.26;96986.28;4817663;29;20575;-68
2022/07/16 02:45:34;;;;;;;4.17;2.73;;;;;;;19.98;56.45;96984.50;4817502;29;20244;-68
2022/07/16 02:48:01;;;;;;;4.30;2.80;;;;;;;20.11;55.58;96994.81;4817596;29;20625;-68
2022/07/16 02:50:29;;;;;;;4.30;2.83;;;;;;;20.07;55.48;96983.72;4817828;29;20209;-69
2022/07/16 02:52:56;;;;;;;3.27;2.60;;;;;;;20.26;54.79;96998.81;4817380;29;20627;-68
2022/07/16 02:55:23;;;;;;;2.97;2.67;;;;;;;20.08;55.11;96992.44;4817818;29;20282;-68
2022/07/16 02:57:50;;;;;;;5.47;3.07;;;;;;;20.09;55.26;96999.38;4817594;29;20241;-68
2022/07/16 03:00:18;;;;;;;4.43;3.03;;;;;;;20.09;55.26;97004.63;4817486;29;20202;-69
2022/07/16 03:02:45;;;;;;;11.67;4.23;;;;;;;20.14;55.22;96999.81;4817706;29;20271;-69
2022/07/16 03:05:12;;;;;;;4.23;3.30;;;;;;;20.18;54.84;97004.69;4817440;29;20805;-69
2022/07/16 03:07:40;;;;;;;4.50;2.77;;;;;;;20.23;55.23;97001.72;4817923;29;20358;-69
2022/07/16 03:10:10;;;;;;;10.37;3.43;;;;;;;20.22;55.41;97005.28;4817638;29;20291;-69
2022/07/16 03:12:38;;;;;;;3.50;3.07;;;;;;;19.98;55.54;96966.09;4817672;29;20269;-68
2022/07/16 03:15:07;;;;;;;3.43;3.13;;;;;;;20.27;55.13;96992.59;4817426;29;20217;-68
2022/07/16 03:17:34;;;;;;;4.37;2.80;;;;;;;20.24;55.68;97000.72;4817230;29;20249;-69
2022/07/16 03:20:01;;;;;;;3.97;3.13;;;;;;;20.08;55.51;96988.03;4818823;29;20213;-70
2022/07/16 03:22:29;;;;;;;4.60;2.87;;;;;;;20.12;55.66;96989.44;4820254;29;20210;-70
2022/07/16 03:24:56;;;;;;;4.73;3.40;;;;;;;20.18;55.12;96993.31;4820571;29;20240;-70
2022/07/16 03:27:23;;;;;;;4.23;2.90;;;;;;;20.26;55.18;96983.84;4820587;29;20306;-69
2022/07/16 03:29:50;;;;;;;4.53;3.07;;;;;;;20.55;54.71;96999.78;4820357;29;20218;-70
2022/07/16 03:32:17;;;;;;;3.87;3.10;;;;;;;20.67;54.16;97005.78;4820699;29;20718;-69
2022/07/16 03:34:44;;;;;;;4.77;3.10;;;;;;;20.75;53.84;97001.50;4820517;29;20210;-69
2022/07/16 03:37:11;;;;;;;8.87;3.20;;;;;;;20.67;53.89;96996.06;4820454;29;20201;-69
2022/07/16 03:39:38;;;;;;;5.47;3.10;;;;;;;20.64;54.48;97006.88;4820432;29;20206;-70
2022/07/16 03:42:05;;;;;;;6.20;3.00;;;;;;;20.46;54.77;97007.63;4820412;29;20673;-70
2022/07/16 03:44:32;;;;;;;3.80;2.70;;;;;;;20.28;55.20;97008.22;4820075;29;20298;-69
2022/07/16 03:46:59;;;;;;;3.80;2.80;;;;;;;20.32;54.89;97011.44;4819456;29;20206;-69
2022/07/16 03:49:26;;;;;;;4.07;3.10;;;;;;;20.34;55.16;97000.81;4805676;29;20211;-70
2022/07/16 03:51:53;;;;;;;3.20;2.90;;;;;;;20.48;54.62;97011.81;4807989;29;20213;-70
2022/07/16 03:54:20;;;;;;;4.17;2.67;;;;;;;20.43;54.18;96998.19;4795381;29;20290;-70
2022/07/16 03:56:47;;;;;;;3.90;2.53;;;;;;;21.01;53.38;96999.25;4819863;29;20213;-69
2022/07/16 03:59:14;;;;;;;4.50;2.83;;;;;;;21.15;52.70;97004.16;4820109;29;20225;-70
2022/07/16 04:01:41;;;;;;;4.17;3.00;;;;;;;21.13;53.13;96999.97;4819968;29;20255;-71
2022/07/16 04:04:08;;;;;;;3.73;2.87;;;;;;;21.22;53.07;97009.72;4820122;29;20703;-70
2022/07/16 04:06:35;;;;;;;4.60;2.87;;;;;;;21.40;52.63;97003.63;4820223;29;20794;-70
2022/07/16 04:09:02;;;;;;;3.20;2.90;;;;;;;21.75;51.64;97003.09;4820278;29;20227;-70
2022/07/16 04:11:29;;;;;;;3.30;2.50;;;;;;;21.88;51.28;97011.59;4819809;29;20217;-70
2022/07/16 04:13:56;;;;;;;3.57;2.90;;;;;;;22.01;50.88;97003.38;4819679;29;20200;-70
2022/07/16 04:16:24;;;;;;;6.13;3.30;;;;;;;21.82;51.52;97012.16;4819505;29;20305;-70
2022/07/16 04:18:51;;;;;;;4.17;3.10;;;;;;;21.62;52.31;97013.06;4819615;29;20204;-71
2022/07/16 04:21:18;;;;;;;3.53;3.10;;;;;;;21.73;52.16;97018.22;4806748;29;20219;-71
2022/07/16 04:23:45;;;;;;;5.90;2.77;;;;;;;22.02;51.75;97016.41;4794195;29;20272;-71
2022/07/16 04:26:13;;;;;;;3.67;2.93;;;;;;;22.40;50.61;97012.88;4801323;29;20303;-71
2022/07/16 04:28:40;;;;;;;6.97;3.10;;;;;;;22.10;51.08;96978.78;4801272;29;20263;-70
2022/07/16 04:31:07;;;;;;;3.17;2.80;;;;;;;22.46;51.15;97009.66;4800393;29;20205;-69
2022/07/16 04:33:34;;;;;;;5.00;2.70;;;;;;;22.77;50.64;97013.75;4801717;29;20206;-70
2022/07/16 04:36:02;;;;;;;8.57;3.63;;;;;;;23.10;50.24;97007.03;4801566;29;20690;-70
2022/07/16 04:38:30;;;;;;;4.63;3.03;;;;;;;23.10;49.75;97017.63;4801326;29;20210;-70
2022/07/16 04:40:57;;;;;;;3.20;2.67;;;;;;;23.35;49.70;97019.56;4800942;29;20211;-69
2022/07/16 04:43:24;;;;;;;5.00;2.80;;;;;;;23.29;49.08;96985.75;4800787;29;20215;-69
2022/07/16 04:45:51;;;;;;;3.87;2.90;;;;;;;23.74;48.27;97018.28;4800613;29;20237;-69
2022/07/16 04:48:18;;;;;;;4.23;2.90;;;;;;;23.78;48.06;97016.19;4800914;29;20263;-68
2022/07/16 04:50:45;;;;;;;4.60;2.50;;;;;;;23.94;47.71;97016.31;4785525;29;20206;-70
2022/07/16 04:53:12;;;;;;;3.63;2.53;;;;;;;24.06;47.70;97018.63;4793192;29;20217;-69
2022/07/16 04:55:41;;;;;;;2.97;2.53;;;;;;;24.18;47.21;97006.78;4783072;29;20257;-71
2022/07/16 04:58:11;;;;;;;2.47;2.27;;;;;;;24.29;46.65;97016.31;4802197;29;20243;-71
2022/07/16 05:00:40;;;;;;;6.97;2.47;;;;;;;24.29;46.70;96981.88;4819011;29;20209;-72
2022/07/16 05:03:08;;;;;;;3.77;2.87;;;;;;;24.51;46.45;97013.13;4819250;29;20213;-69
2022/07/16 05:05:36;;;;;;;3.87;2.60;;;;;;;24.81;45.44;96982.69;4819111;29;20339;-69
2022/07/16 05:08:06;;;;;;;3.00;2.60;;;;;;;25.38;44.76;97019.00;4815493;29;20212;-69
2022/07/16 05:10:33;;;;;;;3.00;2.60;;;;;;;25.43;45.06;97016.69;4819033;29;20204;-69
2022/07/16 05:13:00;;;;;;;3.43;2.87;;;;;;;25.58;44.98;97011.59;4818837;29;20569;-69
2022/07/16 05:15:28;;;;;;;3.27;2.90;;;;;;;25.97;43.77;97019.75;4818947;29;20209;-69
2022/07/16 05:17:55;;;;;;;6.87;4.27;;;;;;;25.88;44.91;96994.22;4818667;29;20531;-71
2022/07/16 05:20:22;;;;;;;6.17;3.90;;;;;;;25.86;44.98;97018.28;4818401;29;20205;-69
2022/07/16 05:22:49;;;;;;;4.97;3.40;;;;;;;25.89;45.05;97019.75;4818093;29;20765;-70
2022/07/16 05:25:16;;;;;;;7.77;4.90;;;;;;;26.11;44.62;97021.81;4818406;29;20710;-70
2022/07/16 05:27:44;;;;;;;7.77;4.80;;;;;;;26.28;44.70;96978.28;4811253;29;20221;-69
2022/07/16 05:30:11;;;;;;;11.83;6.17;;;;;;;26.89;42.34;97013.03;4811514;29;20206;-69
2022/07/16 05:32:41;;;;;;;5.10;2.87;;;;;;;27.23;41.82;97021.53;4818235;29;20249;-69
2022/07/16 05:35:10;;;;;;;6.10;3.10;;;;;;;27.61;41.75;97016.38;4818348;29;20205;-70
2022/07/16 05:37:37;;;;;;;7.20;3.07;;;;;;;27.77;40.54;97018.91;4818244;29;20214;-70
2022/07/16 05:40:05;;;;;;;5.03;3.20;;;;;;;28.03;40.83;97022.91;4818458;29;20256;-70
2022/07/16 05:42:33;;;;;;;5.37;2.93;;;;;;;28.24;40.08;97026.72;4818306;29;20729;-72
2022/07/16 05:45:00;;;;;;;4.07;2.90;;;;;;;27.93;40.33;97021.44;4818161;29;20325;-70
2022/07/16 05:47:29;;;;;;;7.57;3.03;;;;;;;28.14;40.49;97009.16;4818256;29;20871;-70
2022/07/16 05:49:56;;;;;;;5.17;3.10;;;;;;;28.50;41.32;97027.97;4818184;29;20201;-69
2022/07/16 05:52:25;;;;;;;2.80;2.50;;;;;;;28.89;40.11;97020.56;4818393;29;20233;-70
2022/07/16 05:54:52;;;;;;;8.93;3.20;;;;;;;29.08;39.58;97021.06;4818094;29;20237;-72
2022/07/16 05:57:19;;;;;;;9.17;3.77;;;;;;;29.28;39.64;97032.84;4809733;29;20786;-72
2022/07/16 05:59:46;;;;;;;7.77;3.90;;;;;;;29.67;38.62;97026.13;4808814;29;20234;-71
2022/07/16 06:02:13;;;;;;;5.83;3.40;;;;;;;29.94;38.99;97029.91;4812541;29;20221;-70
2022/07/16 06:04:40;;;;;;;7.33;4.00;;;;;;;30.28;37.57;97022.00;4809427;29;20234;-68
2022/07/16 06:07:08;;;;;;;7.23;4.50;;;;;;;30.42;36.93;97013.09;4818219;29;20267;-70
2022/07/16 06:09:35;;;;;;;5.83;3.40;;;;;;;30.56;35.90;97018.53;4818106;29;20295;-69
2022/07/16 06:12:03;;;;;;;5.57;2.90;;;;;;;30.57;34.69;97020.19;4818371;29;20213;-71
2022/07/16 06:14:30;;;;;;;6.70;2.37;;;;;;;30.59;34.29;97015.47;4818151;29;20217;-70
2022/07/16 06:16:57;;;;;;;4.33;2.60;;;;;;;30.59;34.10;97018.13;4805761;29;20588;-70
2022/07/16 06:19:24;;;;;;;5.87;2.30;;;;;;;30.69;34.35;97014.09;4797723;29;20227;-68
2022/07/16 06:21:51;;;;;;;1.90;1.70;;;;;;;30.68;33.30;97011.63;4789158;29;20305;-70
2022/07/16 06:24:18;;;;;;;2.40;1.90;;;;;;;30.60;33.88;97014.44;4794920;29;20215;-71
2022/07/16 06:26:48;;;;;;;4.70;1.70;;;;;;;30.64;33.13;97005.00;4781149;29;20301;-71
2022/07/16 06:29:17;;;;;;;3.33;1.93;;;;;;;30.67;33.69;97004.59;4784803;29;20221;-70
2022/07/16 06:31:44;;;;;;;2.07;1.87;;;;;;;30.72;32.91;97011.03;4782765;29;20301;-71
2022/07/16 06:34:12;;;;;;;6.03;2.17;;;;;;;30.79;32.74;96993.16;4799749;29;20214;-69
2022/07/16 06:36:39;;;;;;;5.20;1.80;;;;;;;30.90;32.89;96999.84;4799131;29;20213;-70
2022/07/16 06:39:06;;;;;;;5.33;1.90;;;;;;;30.96;32.17;96993.69;4782857;29;20229;-69
2022/07/16 06:42:13;;;;;;;4.70;1.93;;;;;;;31.10;32.28;96996.25;4796000;29;20318;-71
2022/07/16 06:45:37;;;;;;;4.30;2.28;;;;;;;31.09;32.27;96967.84;4792362;29;20386;-70
2022/07/16 06:48:58;;;;;;;3.03;1.63;;;;;;;31.28;31.65;96990.38;4797835;29;20744;-70
2022/07/16 06:52:18;;;;;;;3.83;2.20;;;;;;;31.56;31.83;96987.59;4798526;29;20202;-72
2022/07/16 06:55:54;;;;;;;2.67;1.90;;;;;;;31.53;31.82;96994.16;4800797;29;20211;-71
2022/07/16 06:58:36;;;;;;;4.90;2.28;;;;;;;31.59;31.07;96985.34;4797172;29;20268;-72
2022/07/16 07:01:03;;;;;;;2.87;2.00;;;;;;;31.60;31.34;97000.38;4796942;29;20210;-69
2022/07/16 07:03:30;;;;;;;4.63;2.30;;;;;;;31.69;31.59;96995.66;4795596;29;20305;-68
2022/07/16 07:05:57;;;;;;;4.88;1.83;;;;;;;31.67;30.98;97001.22;4802333;29;20581;-71
2022/07/16 07:08:24;;;;;;;3.83;2.08;;;;;;;31.79;30.46;96990.72;4802653;29;20581;-71
2022/07/16 07:10:51;;;;;;;2.25;1.95;;;;;;;31.66;30.97;96991.53;4802219;29;20214;-70
2022/07/16 07:13:18;;;;;;;3.70;1.77;;;;;;;31.38;31.34;96982.78;4802542;29;20283;-70
2022/07/16 07:15:45;;;;;;;2.80;1.90;;;;;;;31.35;31.29;96990.41;4802483;29;20293;-70
2022/07/16 07:18:12;;;;;;;4.27;2.10;;;;;;;31.31;31.83;96995.31;4792857;29;20649;-68
2022/07/16 07:20:39;;;;;;;4.13;1.77;;;;;;;31.45;31.73;96999.72;4785294;29;20605;-69
2022/07/16 07:23:07;;;;;;;3.72;1.80;;;;;;;31.58;31.73;97002.44;4792832;29;20215;-70
2022/07/16 07:25:34;;;;;;;2.75;1.92;;;;;;;31.72;31.35;96987.22;4784123;29;20235;-70
2022/07/16 07:28:08;;;;;;;2.45;2.20;;;;;;;31.79;31.29;96991.56;4767906;29;20298;-72
2022/07/16 07:30:35;;;;;;;3.33;1.70;;;;;;;32.01;31.17;96974.31;4783814;29;20199;-69
2022/07/16 07:33:02;;;;;;;3.63;1.92;;;;;;;32.12;31.36;97004.19;4783829;29;20219;-70
2022/07/16 07:35:29;;;;;;;4.60;2.53;;;;;;;32.14;30.70;96994.09;4784604;29;20253;-68
2022/07/16 07:37:56;;;;;;;4.63;1.83;;;;;;;31.83;31.08;97000.84;4792390;29;20215;-69
2022/07/16 07:41:03;;;;;;;2.78;2.28;;;;;;;31.92;31.67;97010.31;4785981;29;20680;-71
2022/07/16 07:43:44;;;;;;;3.72;2.40;;;;;;;32.03;31.89;97004.41;4798772;29;20241;-71
2022/07/16 07:46:11;;;;;;;3.13;2.42;;;;;;;32.26;31.03;97014.72;4781477;29;20246;-70
2022/07/16 07:48:38;;;;;;;4.40;3.10;;;;;;;32.33;31.18;97014.72;4800817;29;20367;-72
2022/07/16 07:51:06;;;;;;;3.72;2.47;;;;;;;32.26;31.67;97006.69;4800172;29;20207;-71
2022/07/16 07:53:34;;;;;;;4.00;2.80;;;;;;;32.50;31.05;97007.97;4800215;29;20267;-71
2022/07/16 07:56:02;;;;;;;3.63;2.30;;;;;;;32.27;31.51;97023.59;4801585;29;20202;-71
2022/07/16 07:58:29;;;;;;;3.38;2.20;;;;;;;31.74;31.92;97025.34;4800851;29;20975;-71
2022/07/16 08:00:56;;;;;;;3.25;2.30;;;;;;;31.72;32.80;97017.50;4793278;29;20191;-71
2022/07/16 08:03:43;;;;;;;3.55;2.50;;;;;;;32.06;32.09;97009.38;4783039;29;20272;-72
2022/07/16 08:06:11;;;;;;;3.22;2.45;;;;;;;32.28;31.62;97019.88;4782015;29;20246;-71
2022/07/16 08:08:38;;;;;;;4.05;2.38;;;;;;;31.93;32.40;97020.06;4784918;29;20592;-71
2022/07/16 08:11:05;;;;;;;3.20;2.72;;;;;;;31.95;32.44;97018.00;4796447;29;20239;-71
2022/07/16 08:13:33;;;;;;;5.40;2.60;;;;;;;32.19;31.68;97008.53;4801148;29;20210;-72
2022/07/16 08:16:00;;;;;;;4.35;2.60;;;;;;;32.55;32.14;97018.88;4794417;29;20607;-70
2022/07/16 08:18:26;;;;;;;3.05;2.40;;;;;;;32.52;31.70;97025.47;4793085;29;20699;-71
2022/07/16 08:20:54;;;;;;;6.22;2.67;;;;;;;32.28;32.15;97020.72;4801282;29;20305;-69
2022/07/16 08:25:44;;;;;;;4.18;2.83;;;;;;;32.02;31.96;97012.66;4800807;29;20210;-71
2022/07/16 08:26:07;;;;;;;3.92;2.67;;;;;;;32.31;32.46;97022.16;4793554;29;20279;-70
2022/07/16 08:28:40;;;;;;;6.30;2.72;;;;;;;32.05;31.33;97015.75;4782470;29;20216;-70
2022/07/16 08:31:07;;;;;;;3.63;3.13;;;;;;;32.31;32.10;97019.47;4791893;29;20207;-70
2022/07/16 08:33:35;;;;;;;3.17;2.90;;;;;;;32.52;30.27;97028.16;4800946;29;20214;-71
2022/07/16 08:36:03;;;;;;;3.33;3.00;;;;;;;32.51;30.99;97025.69;4787532;29;20581;-71
2022/07/16 08:38:30;;;;;;;5.20;3.30;;;;;;;32.39;30.82;97016.59;4789034;29;20226;-70
2022/07/16 08:41:05;;;;;;;3.40;3.10;;;;;;;32.54;30.53;97017.25;4783312;29;20298;-71
2022/07/16 08:43:35;;;;;;;5.03;3.33;;;;;;;32.67;30.50;97017.19;4783189;29;20671;-70
2022/07/16 08:46:03;;;;;;;3.97;3.40;;;;;;;32.83;29.67;97009.53;4782560;29;20243;-70
2022/07/16 08:48:32;;;;;;;4.13;3.63;;;;;;;32.97;29.85;97013.03;4781482;29;20295;-70
2022/07/16 08:51:03;;;;;;;4.30;3.30;;;;;;;32.92;28.81;97020.88;4782670;29;20236;-72
2022/07/16 08:53:31;;;;;;;2.90;2.60;;;;;;;32.94;29.67;97018.81;4768874;29;20330;-71
2022/07/16 08:56:00;;;;;;;3.28;2.97;;;;;;;32.95;29.84;97025.84;4799995;29;20745;-70
2022/07/16 08:58:32;;;;;;;3.35;3.05;;;;;;;33.09;29.90;97019.44;4799408;29;20293;-71
2022/07/16 09:00:59;;;;;;;4.93;3.00;;;;;;;33.05;29.37;97026.25;4784247;29;20675;-71
2022/07/16 09:03:27;;;;;;;7.28;3.65;;;;;;;33.10;29.33;97028.31;4800268;29;20576;-71
2022/07/16 09:06:34;;;;;;;3.60;3.30;;;;;;;33.11;29.61;97028.09;4799779;29;20246;-70
2022/07/16 09:09:54;;;;;;;4.25;2.60;;;;;;;32.73;29.72;97032.47;4799276;29;20202;-70
2022/07/16 09:13:02;;;;;;;3.05;2.75;;;;;;;32.67;29.72;97030.63;4799255;29;20207;-72
2022/07/16 09:15:41;;;;;;;3.40;3.13;;;;;;;32.70;29.80;97035.56;4799965;29;20214;-71
2022/07/16 09:18:22;;;;;;;5.40;3.25;;;;;;;32.80;29.99;97025.25;4787334;29;20247;-71
2022/07/16 09:20:49;;;;;;;3.38;3.08;;;;;;;32.99;30.36;97027.09;4786389;29;20242;-71
2022/07/16 09:23:27;;;;;;;6.03;3.22;;;;;;;32.56;29.38;97037.44;4800217;29;20271;-71
2022/07/16 09:25:57;;;;;;;2.97;2.67;;;;;;;32.53;28.82;97037.88;4791563;29;20243;-71
2022/07/16 09:28:26;;;;;;;3.30;2.90;;;;;;;32.63;29.91;97035.59;4782037;29;20227;-69
2022/07/16 09:30:53;;;;;;;3.17;2.63;;;;;;;32.85;29.67;97036.19;4782808;29;20207;-69
2022/07/16 09:33:22;;;;;;;3.30;2.80;;;;;;;32.96;28.79;97032.84;4781747;29;20264;-68
2022/07/16 09:36:05;;;;;;;3.45;2.65;;;;;;;32.91;29.31;97034.50;4781802;29;20273;-71
2022/07/16 09:38:53;;;;;;;3.72;2.88;;;;;;;33.02;29.44;97034.72;4797676;29;20217;-70
2022/07/16 09:41:22;;;;;;;3.90;3.42;;;;;;;33.20;29.80;97045.59;4799614;29;20557;-70
2022/07/16 09:43:50;;;;;;;4.18;2.80;;;;;;;33.20;29.21;97032.19;4799848;29;20214;-70
2022/07/16 09:46:20;;;;;;;4.85;2.70;;;;;;;33.46;28.75;97034.78;4798747;29;20846;-69
2022/07/16 09:48:48;;;;;;;5.10;2.50;;;;;;;33.43;28.73;97029.81;4797758;29;20209;-70
2022/07/16 09:51:17;;;;;;;3.22;2.92;;;;;;;33.17;29.82;97039.84;4799710;29;20218;-69
2022/07/16 09:53:46;;;;;;;5.38;3.08;;;;;;;33.21;29.74;97044.56;4799366;29;20709;-70
2022/07/16 09:56:16;;;;;;;3.83;2.80;;;;;;;33.25;29.64;97035.06;4783393;29;20202;-70
2022/07/16 09:58:51;;;;;;;3.40;3.08;;;;;;;33.24;29.90;97036.09;4799715;29;20199;-70
2022/07/16 10:01:19;;;;;;;5.10;3.47;;;;;;;33.43;29.45;97035.19;4783162;29;20210;-70
2022/07/16 10:03:48;;;;;;;3.92;3.00;;;;;;;33.40;29.07;97027.59;4799114;29;20218;-70
2022/07/16 10:06:16;;;;;;;4.82;2.95;;;;;;;33.38;29.44;97037.72;4782983;29;20233;-70
2022/07/16 10:08:45;;;;;;;3.22;2.92;;;;;;;33.54;29.54;97026.50;4799121;29;20206;-70
2022/07/16 10:11:13;;;;;;;4.15;3.67;;;;;;;33.78;29.51;97035.66;4782435;29;20714;-70
2022/07/16 10:13:43;;;;;;;3.63;3.33;;;;;;;33.74;28.94;97026.38;4798119;29;20679;-70
2022/07/16 10:16:11;;;;;;;3.40;3.10;;;;;;;33.65;28.52;97028.50;4799003;29;20607;-71
2022/07/16 10:18:42;;;;;;;5.43;3.95;;;;;;;33.54;29.04;97014.94;4798996;29;20214;-70
2022/07/16 10:21:22;;;;;;;4.03;2.85;;;;;;;33.42;29.79;97021.97;4799211;29;20675;-70
2022/07/16 10:24:02;;;;;;;2.97;2.67;;;;;;;33.42;30.05;97032.72;4799347;29;20203;-70
2022/07/16 10:26:32;;;;;;;3.92;2.70;;;;;;;33.51;29.96;97015.38;4799344;29;20321;-70
2022/07/16 10:29:01;;;;;;;3.53;2.85;;;;;;;33.70;29.43;97029.72;4799927;29;20934;-70
2022/07/16 10:31:37;;;;;;;3.05;2.75;;;;;;;33.43;29.39;97013.72;4803180;29;20221;-70
2022/07/16 10:34:32;;;;;;;4.75;3.10;;;;;;;33.06;29.51;97033.25;4801605;29;20218;-70
2022/07/16 10:37:00;;;;;;;3.72;2.92;;;;;;;32.98;30.17;97024.59;4800330;29;20214;-70
2022/07/16 10:39:28;;;;;;;6.28;2.58;;;;;;;32.86;30.00;97019.88;4802865;29;20581;-70
2022/07/16 10:42:16;;;;;;;3.20;2.70;;;;;;;32.71;30.64;97021.13;4800156;29;20217;-70
2022/07/16 10:44:48;;;;;;;3.40;2.70;;;;;;;32.60;30.40;97027.94;4784741;29;20230;-70
2022/07/16 10:48:04;;;;;;;3.30;2.70;;;;;;;32.87;30.05;97007.28;4781743;29;20305;-70
2022/07/16 10:51:16;;;;;;;3.03;2.50;;;;;;;33.09;29.18;97006.00;4795665;29;20244;-71
2022/07/16 10:54:03;;;;;;;3.38;2.90;;;;;;;33.40;29.37;97011.47;4799044;29;20202;-69
2022/07/16 10:57:29;;;;;;;2.58;2.38;;;;;;;33.27;28.02;97014.19;4802710;29;20206;-70
2022/07/16 11:00:50;;;;;;;2.92;2.72;;;;;;;32.65;28.81;97014.72;4799359;29;20222;-69
2022/07/16 11:04:13;;;;;;;3.22;2.53;;;;;;;33.06;28.97;97001.03;4801960;29;20573;-71
2022/07/16 11:07:34;;;;;;;3.92;2.45;;;;;;;33.49;28.45;97007.50;4802400;29;20664;-70
2022/07/16 11:10:55;;;;;;;4.40;2.70;;;;;;;33.64;28.08;97012.59;4797349;29;20309;-70
2022/07/16 11:14:15;;;;;;;4.82;2.60;;;;;;;33.71;27.57;97036.75;4802254;29;20202;-70
2022/07/16 11:17:36;;;;;;;2.70;2.20;;;;;;;33.20;28.54;97002.63;4810384;29;20718;-69
2022/07/16 11:20:56;;;;;;;3.00;2.17;;;;;;;33.13;28.75;97026.03;4819467;29;20202;-70
2022/07/16 11:24:29;;;;;;;4.85;2.47;;;;;;;33.25;28.88;97013.59;4819310;29;20263;-70
2022/07/16 11:27:50;;;;;;;6.25;2.72;;;;;;;32.89;29.31;97026.69;4819226;29;20237;-71
2022/07/16 11:31:23;;;;;;;2.90;2.60;;;;;;;32.81;29.26;97013.47;4803149;29;20202;-70
2022/07/16 11:34:44;;;;;;;4.20;2.63;;;;;;;33.08;28.75;97020.44;4804010;29;20201;-71
2022/07/16 11:38:07;;;;;;;5.63;2.40;;;;;;;33.49;27.92;97012.88;4819142;29;20623;-71
2022/07/16 11:41:28;;;;;;;2.55;2.20;;;;;;;33.34;28.24;97041.84;4818562;29;20270;-69
2022/07/16 11:44:49;;;;;;;3.05;2.72;;;;;;;33.22;28.81;97021.25;4819222;29;20205;-69
2022/07/16 11:48:09;;;;;;;3.17;2.90;;;;;;;32.97;29.85;97017.56;4819276;29;20230;-69
2022/07/16 11:51:30;;;;;;;2.90;2.60;;;;;;;33.28;29.57;97026.59;4818475;29;20202;-71
2022/07/16 11:54:56;;;;;;;3.20;2.60;;;;;;;33.50;29.32;97025.28;4818941;29;20662;-69
2022/07/16 11:58:17;;;;;;;3.85;2.58;;;;;;;33.47;29.91;97011.41;4818947;29;20198;-70
2022/07/16 12:00:58;;;;;;;3.72;2.83;;;;;;;33.53;29.68;97022.16;4797715;29;20242;-71
2022/07/16 12:03:25;;;;;;;3.00;2.25;;;;;;;33.06;29.49;97019.84;4792532;29;20310;-71
2022/07/16 12:06:13;;;;;;;5.38;2.55;;;;;;;33.48;29.15;97015.75;4783822;29;20304;-70
2022/07/16 12:08:55;;;;;;;6.38;2.67;;;;;;;33.35;29.34;97026.53;4783556;29;20227;-71